Time;durP1;ratioP1;P1;durP2;ratioP2;P2;SDS_P1;SDS_P2;PMS_P1;PMS_P2;Temp;Humidity;BMP_temperature;BMP_pressure;BME280_temperature;BME280_humidity;BME280_pressure;Samples;Min_cycle;Max_cycle;Signal;HPM_P1;HPM_P2
2022/05/11 00:00:36;;;;;;;10.07;5.72;;;;;;;;;;6039013;23;20025;-91
2022/05/11 00:06:31;;;;;;;10.95;5.50;;;;;;;;;;5897071;24;20383;-90
2022/05/11 00:15:55;;;;;;;10.82;6.53;;;;;;;;;;5903912;24;20025;-92
2022/05/11 01:07:42;;;;;;;8.55;5.20;;;;;;;;;;6120680;23;20029;-89
2022/05/11 01:10:09;;;;;;;10.43;5.78;;;;;;;;;;6046241;23;20021;-90
2022/05/11 01:12:44;;;;;;;7.70;4.72;;;;;;;;;;6069775;23;20537;-89
2022/05/11 01:15:11;;;;;;;10.40;4.93;;;;;;;;;;6069964;23;20132;-91
2022/05/11 01:17:58;;;;;;;9.40;4.90;;;;;;;;;;6070189;23;20018;-88
2022/05/11 01:20:25;;;;;;;9.23;5.00;;;;;;;;;;6069427;23;20041;-89
2022/05/11 01:23:00;;;;;;;9.00;5.38;;;;;;;;;;6069117;23;20017;-88
2022/05/11 01:29:14;;;;;;;9.23;5.15;;;;;;;;;;6092480;23;20029;-89
2022/05/11 01:31:52;;;;;;;15.45;5.43;;;;;;;;;;6062663;23;20046;-90
2022/05/11 01:34:28;;;;;;;8.73;4.53;;;;;;;;;;6071092;23;20010;-89
2022/05/11 01:36:57;;;;;;;8.23;5.20;;;;;;;;;;6074301;23;20459;-89
2022/05/11 01:39:26;;;;;;;10.23;5.78;;;;;;;;;;6093314;23;20447;-88
2022/05/11 01:41:55;;;;;;;11.13;5.22;;;;;;;;;;6069867;23;20025;-89
2022/05/11 01:44:22;;;;;;;13.93;5.50;;;;;;;;;;6068703;23;20022;-88
2022/05/11 01:46:50;;;;;;;9.75;5.45;;;;;;;;;;6069695;23;20010;-89
2022/05/11 01:49:20;;;;;;;13.43;5.78;;;;;;;;;;6068975;23;20961;-88
2022/05/11 01:51:46;;;;;;;7.72;5.40;;;;;;;;;;6067312;23;20027;-89
2022/05/11 01:54:22;;;;;;;8.85;5.28;;;;;;;;;;6093002;23;20018;-92
2022/05/11 01:56:59;;;;;;;7.88;5.07;;;;;;;;;;6097067;23;20061;-91
2022/05/11 01:59:26;;;;;;;8.35;5.50;;;;;;;;;;6073201;23;20018;-90
2022/05/11 02:01:57;;;;;;;10.88;5.82;;;;;;;;;;6097212;23;20017;-90
2022/05/11 02:10:03;;;;;;;11.75;5.50;;;;;;;;;;6098815;23;20050;-92
2022/05/11 02:12:30;;;;;;;12.07;5.97;;;;;;;;;;6076771;23;20022;-93
2022/05/11 02:14:56;;;;;;;9.55;5.20;;;;;;;;;;6073461;23;20466;-91
2022/05/11 02:17:31;;;;;;;8.98;5.85;;;;;;;;;;6072732;23;20032;-91
2022/05/11 02:19:58;;;;;;;11.95;5.75;;;;;;;;;;6096486;23;20017;-92
2022/05/11 02:22:30;;;;;;;11.07;6.00;;;;;;;;;;6072796;23;20014;-91
2022/05/11 02:25:03;;;;;;;9.63;5.60;;;;;;;;;;6073276;23;20037;-91
2022/05/11 02:27:35;;;;;;;;;;;;;;;;;;6074589;23;20017;-91
2022/05/11 02:30:05;;;;;;;10.35;5.30;;;;;;;;;;6096670;23;20257;-91
2022/05/11 02:32:48;;;;;;;11.05;5.72;;;;;;;;;;6073294;23;20009;-92
2022/05/11 02:35:17;;;;;;;8.93;6.13;;;;;;;;;;6071076;23;20014;-91
2022/05/11 02:38:29;;;;;;;12.68;6.88;;;;;;;;;;6073463;23;20029;-91
2022/05/11 02:40:58;;;;;;;9.05;5.57;;;;;;;;;;6073253;23;20022;-91
2022/05/11 02:43:26;;;;;;;10.55;6.13;;;;;;;;;;6073186;23;20050;-90
2022/05/11 02:46:09;;;;;;;10.00;6.20;;;;;;;;;;6076285;23;20068;-91
2022/05/11 02:48:36;;;;;;;10.20;5.50;;;;;;;;;;6072019;23;20029;-91
2022/05/11 02:51:09;;;;;;;16.88;6.13;;;;;;;;;;6072631;23;20014;-90
2022/05/11 02:53:36;;;;;;;14.35;6.30;;;;;;;;;;6072711;23;20052;-91
2022/05/11 02:56:06;;;;;;;14.38;6.10;;;;;;;;;;6072849;23;20064;-92
2022/05/11 02:58:32;;;;;;;10.27;6.10;;;;;;;;;;6096510;23;20018;-89
2022/05/11 03:01:09;;;;;;;9.18;6.88;;;;;;;;;;6073513;23;20053;-90
2022/05/11 03:03:36;;;;;;;8.13;6.03;;;;;;;;;;6072733;23;20560;-90
2022/05/11 03:06:12;;;;;;;10.95;6.47;;;;;;;;;;6072491;23;20014;-91
2022/05/11 03:08:43;;;;;;;13.85;6.03;;;;;;;;;;6066925;23;20014;-91
2022/05/11 03:11:09;;;;;;;13.82;6.88;;;;;;;;;;6072745;23;20088;-91
2022/05/11 03:13:35;;;;;;;9.80;6.18;;;;;;;;;;6072026;23;20028;-90
2022/05/11 03:16:01;;;;;;;10.63;6.18;;;;;;;;;;6097239;23;20014;-88
2022/05/11 03:18:34;;;;;;;10.20;6.10;;;;;;;;;;6096757;23;20049;-90
2022/05/11 03:21:06;;;;;;;9.05;5.45;;;;;;;;;;6071385;23;20018;-90
2022/05/11 03:23:36;;;;;;;10.05;6.07;;;;;;;;;;6094216;23;20017;-90
2022/05/11 03:26:02;;;;;;;10.85;5.57;;;;;;;;;;6094373;23;20010;-90
2022/05/11 03:28:29;;;;;;;9.55;6.00;;;;;;;;;;6094489;23;20128;-91
2022/05/11 03:31:04;;;;;;;9.85;5.45;;;;;;;;;;6093688;23;20017;-90
2022/05/11 03:36:23;;;;;;;18.23;5.93;;;;;;;;;;6092735;23;20027;-91
2022/05/11 03:38:50;;;;;;;8.95;5.90;;;;;;;;;;6069496;23;20029;-88
2022/05/11 03:41:22;;;;;;;10.05;5.88;;;;;;;;;;6070049;23;20568;-89
2022/05/11 03:43:48;;;;;;;10.33;5.83;;;;;;;;;;6069163;23;20018;-90
2022/05/11 03:46:21;;;;;;;16.73;6.07;;;;;;;;;;6068436;23;20017;-90
2022/05/11 03:48:47;;;;;;;11.20;6.00;;;;;;;;;;6094175;23;20158;-90
2022/05/11 03:51:13;;;;;;;11.63;6.00;;;;;;;;;;6093319;23;20444;-89
2022/05/11 03:53:42;;;;;;;10.80;6.00;;;;;;;;;;6097517;23;20014;-91
2022/05/11 03:56:11;;;;;;;11.90;5.80;;;;;;;;;;6070811;23;20022;-90
2022/05/11 03:58:37;;;;;;;13.45;6.13;;;;;;;;;;6068608;23;20053;-90
2022/05/11 04:01:03;;;;;;;14.32;6.10;;;;;;;;;;6069409;23;20053;-89
2022/05/11 04:03:29;;;;;;;12.90;5.90;;;;;;;;;;6071476;23;20105;-90
2022/05/11 04:06:17;;;;;;;10.48;5.82;;;;;;;;;;6070904;23;20450;-91
2022/05/11 04:08:43;;;;;;;12.30;6.53;;;;;;;;;;6070707;23;20069;-90
2022/05/11 04:11:11;;;;;;;11.10;5.72;;;;;;;;;;6071826;23;20017;-91
2022/05/11 04:13:40;;;;;;;13.55;6.20;;;;;;;;;;6071448;23;20049;-91
2022/05/11 04:16:09;;;;;;;12.13;6.30;;;;;;;;;;6071780;23;20025;-91
2022/05/11 04:18:45;;;;;;;11.45;6.32;;;;;;;;;;6071480;23;20024;-91
2022/05/11 04:21:11;;;;;;;13.07;6.30;;;;;;;;;;6070620;23;20048;-91
2022/05/11 04:26:35;;;;;;;13.80;5.75;;;;;;;;;;6097906;23;20018;-90
2022/05/11 04:29:19;;;;;;;16.33;6.63;;;;;;;;;;6072590;23;20020;-91
2022/05/11 04:31:46;;;;;;;16.73;6.53;;;;;;;;;;6069707;23;20053;-91
2022/05/11 04:34:40;;;;;;;12.73;6.00;;;;;;;;;;6091655;23;20018;-91
2022/05/11 04:37:31;;;;;;;9.60;6.17;;;;;;;;;;6065809;23;20010;-91
2022/05/11 06:52:31;;;;;;;12.13;5.10;;;;;;;;;;6145346;23;20027;-88
2022/05/11 07:00:48;;;;;;;11.30;4.07;;;;;;;;;;6146111;23;20017;-88
2022/05/11 07:03:18;;;;;;;10.27;4.05;;;;;;;;;;6120551;23;20549;-91
2022/05/11 07:05:48;;;;;;;11.63;4.90;;;;;;;;;;6096203;23;20032;-88
2022/05/11 07:08:22;;;;;;;13.02;4.28;;;;;;;;;;6119857;23;20017;-88
2022/05/11 07:12:17;;;;;;;13.55;3.95;;;;;;;;;;6097105;23;20097;-89
2022/05/11 07:13:53;;;;;;;9.20;3.90;;;;;;;;;;6127290;23;20260;-88
2022/05/11 07:16:29;;;;;;;11.55;3.58;;;;;;;;;;6101722;23;20443;-90
2022/05/11 07:18:55;;;;;;;9.35;3.70;;;;;;;;;;6121806;23;20395;-89
2022/05/11 07:21:21;;;;;;;9.65;3.70;;;;;;;;;;6097259;23;20080;-89
2022/05/11 07:23:47;;;;;;;10.23;3.85;;;;;;;;;;6097207;23;20018;-89
2022/05/11 07:26:16;;;;;;;7.75;3.45;;;;;;;;;;6096357;23;20020;-90
2022/05/11 07:28:42;;;;;;;13.80;3.28;;;;;;;;;;6096687;23;20180;-89
2022/05/11 07:31:08;;;;;;;9.35;3.25;;;;;;;;;;6121125;23;20010;-88
2022/05/11 07:33:43;;;;;;;8.23;3.30;;;;;;;;;;6120686;23;20009;-88
2022/05/11 07:36:14;;;;;;;14.82;3.28;;;;;;;;;;6121807;23;20017;-90
2022/05/11 07:38:41;;;;;;;11.48;3.80;;;;;;;;;;6095581;23;20109;-88
2022/05/11 07:41:11;;;;;;;10.23;3.17;;;;;;;;;;6098826;23;20021;-89
2022/05/11 07:43:43;;;;;;;8.77;3.20;;;;;;;;;;6098039;23;20120;-89
2022/05/11 07:46:10;;;;;;;8.38;2.90;;;;;;;;;;6123868;23;20080;-90
2022/05/11 07:48:36;;;;;;;7.93;3.05;;;;;;;;;;6099552;23;20068;-88
2022/05/11 07:51:02;;;;;;;10.45;2.92;;;;;;;;;;6124618;23;20009;-89
2022/05/11 07:53:29;;;;;;;10.05;2.90;;;;;;;;;;6097563;23;20020;-90
2022/05/11 08:01:32;;;;;;;8.70;3.30;;;;;;;;;;6127336;23;20025;-91
2022/05/11 08:03:58;;;;;;;12.52;2.65;;;;;;;;;;6146538;23;20322;-88
2022/05/11 08:06:25;;;;;;;11.27;2.63;;;;;;;;;;6099939;23;20014;-89
2022/05/11 08:08:55;;;;;;;14.05;3.58;;;;;;;;;;6098231;23;20402;-90
2022/05/11 08:11:21;;;;;;;12.98;2.40;;;;;;;;;;6100053;23;20014;-91
2022/05/11 08:13:48;;;;;;;11.73;2.38;;;;;;;;;;6099489;23;20021;-89
2022/05/11 08:16:14;;;;;;;9.63;2.30;;;;;;;;;;6126150;23;20037;-89
2022/05/11 08:18:46;;;;;;;9.13;2.60;;;;;;;;;;6101007;23;20049;-90
2022/05/11 08:21:12;;;;;;;10.70;2.90;;;;;;;;;;6123013;23;20366;-89
2022/05/11 08:23:43;;;;;;;7.43;2.67;;;;;;;;;;6098995;23;20021;-90
2022/05/11 08:26:12;;;;;;;11.73;2.42;;;15.90;97.30;;;;;;6096602;23;20024;-88
2022/05/11 08:28:47;;;;;;;13.75;2.42;;;;;;;;;;6099309;23;20439;-87
2022/05/11 08:34:01;;;;;;;7.57;2.78;;;;;;;;;;6124685;23;20104;-86
2022/05/11 08:36:28;;;;;;;8.18;2.80;;;;;;;;;;6145856;23;20326;-90
2022/05/11 08:38:58;;;;;;;10.60;2.20;;;17.10;99.90;;;;;;6119738;23;20017;-88
2022/05/11 08:41:28;;;;;;;12.43;2.30;;;;;;;;;;6120106;23;20264;-90
2022/05/11 08:44:15;;;;;;;9.25;2.30;;;;;;;;;;6119152;23;20013;-90
2022/05/11 08:47:01;;;;;;;11.38;2.45;;;;;;;;;;6119985;23;20359;-92
2022/05/11 08:49:42;;;;;;;7.50;2.35;;;;;;;;;;6119773;23;20037;-89
2022/05/11 08:52:16;;;;;;;11.07;2.40;;;;;;;;;;6121762;23;20040;-88
2022/05/11 08:54:47;;;;;;;6.75;1.92;;;;;;;;;;6122648;23;20021;-91
2022/05/11 08:57:33;;;;;;;8.20;2.25;;;;;;;;;;6123705;23;20018;-90
2022/05/11 09:00:03;;;;;;;10.98;2.22;;;;;;;;;;6120495;23;21404;-89
2022/05/11 09:02:37;;;;;;;10.32;2.00;;;;;;;;;;6119398;23;20014;-91
2022/05/11 09:05:04;;;;;;;7.45;2.22;;;;;;;;;;6119556;23;20024;-91
2022/05/11 09:07:37;;;;;;;14.68;2.47;;;;;;;;;;6120306;23;20013;-89
2022/05/11 09:10:05;;;;;;;9.20;1.85;;;;;;;;;;6119454;23;20009;-90
2022/05/11 09:12:31;;;;;;;9.07;2.95;;;;;;;;;;6119653;23;20013;-88
2022/05/11 09:15:01;;;;;;;10.65;2.72;;;;;;;;;;6120617;23;20025;-89
2022/05/11 09:17:32;;;;;;;10.13;2.45;;;;;;;;;;6096311;23;20017;-87
2022/05/11 09:20:07;;;;;;;7.28;1.95;;;;;;;;;;6120046;23;20088;-89
2022/05/11 09:22:41;;;;;;;11.07;2.13;;;;;;;;;;6121727;23;20010;-89
2022/05/11 09:25:21;;;;;;;11.70;2.35;;;;;;;;;;6118449;23;20287;-89
2022/05/11 09:27:48;;;;;;;10.80;2.00;;;;;;;;;;6120144;23;20017;-89
2022/05/11 09:30:20;;;;;;;9.90;2.40;;;;;;;;;;6125016;23;20053;-88
2022/05/11 09:32:49;;;;;;;11.00;2.58;;;;;;;;;;6120572;23;20010;-90
2022/05/11 09:35:15;;;;;;;9.98;2.33;;;;;;;;;;6097168;23;20396;-90
2022/05/11 09:37:45;;;;;;;12.18;2.42;;;;;;;;;;6120949;23;20057;-87
2022/05/11 09:40:11;;;;;;;12.57;2.60;;;;;;;;;;6121752;23;20017;-88
2022/05/11 09:42:58;;;;;;;9.32;2.25;;;;;;;;;;6121969;23;20018;-88
2022/05/11 09:45:47;;;;;;;8.25;2.15;;;;;;;;;;6122904;23;20353;-90
2022/05/11 09:48:14;;;;;;;13.30;2.55;;;;;;;;;;6120533;23;20020;-90
2022/05/11 09:50:44;;;;;;;12.13;2.53;;;;;;;;;;6120654;23;20062;-90
2022/05/11 09:53:31;;;;;;;11.45;2.40;;;;;;;;;;6120860;23;20068;-88
2022/05/11 09:59:37;;;;;;;13.95;2.47;;;;;;;;;;6145435;23;20061;-89
2022/05/11 10:02:22;;;;;;;9.88;1.80;;;;;;;;;;6124165;23;20415;-88
2022/05/11 10:05:01;;;;;;;10.85;2.60;;;;;;;;;;6122504;23;20150;-91
2022/05/11 10:07:28;;;;;;;7.75;2.00;;;;;;;;;;6122037;23;20079;-89
2022/05/11 10:10:12;;;;;;;11.98;2.03;;;;;;;;;;6120009;23;20097;-89
2022/05/11 10:12:47;;;;;;;10.23;2.30;;;;;;;;;;6121552;23;20014;-88
2022/05/11 10:24:01;;;;;;;7.15;1.70;;;;;;;;;;6146616;23;20056;-87
2022/05/11 10:26:31;;;;;;;8.85;2.03;;;;;;;;;;6121166;23;20496;-88
2022/05/11 10:29:20;;;;;;;7.18;1.67;;;;;;;;;;6122372;23;20028;-91
2022/05/11 10:31:53;;;;;;;7.57;1.40;;;;;;;;;;6053767;23;20343;-89
2022/05/11 10:34:20;;;;;;;10.27;2.30;;;;;;;;;;6120465;23;20021;-88
2022/05/11 10:37:09;;;;;;;8.65;2.38;;;;;;;;;;6124805;23;20483;-89
2022/05/11 10:39:49;;;;;;;9.38;2.08;;;;;;;;;;6118401;23;20024;-89
2022/05/11 10:42:28;;;;;;;9.07;1.83;;;;;;;;;;6120740;23;20056;-86
2022/05/11 10:45:04;;;;;;;5.03;1.40;;;;;;;;;;6120386;23;20021;-87
2022/05/11 10:47:33;;;;;;;11.48;1.92;;;;;;;;;;6122297;23;20097;-87
2022/05/11 10:49:59;;;;;;;10.35;2.00;;;;;;;;;;6119475;23;20676;-89
2022/05/11 10:52:35;;;;;;;14.63;2.08;;;;;;;;;;6120868;23;20020;-90
2022/05/11 10:55:18;;;;;;;8.30;1.33;;;;;;;;;;6121011;23;20478;-89
2022/05/11 10:58:01;;;;;;;7.13;2.08;;;;;;;;;;6122184;23;20013;-91
2022/05/11 11:00:29;;;;;;;7.68;1.88;;;;;;;;;;6120572;23;20486;-90
2022/05/11 11:03:14;;;;;;;8.02;2.10;;;;;;;;;;6120712;23;20014;-88
2022/05/11 11:05:40;;;;;;;9.98;2.05;;;;;;;;;;6119315;23;20017;-89
2022/05/11 11:08:28;;;;;;;8.82;1.70;;;;;;;;;;6122597;23;20032;-87
2022/05/11 11:10:57;;;;;;;7.50;1.88;;;;;;;;;;6123585;23;20451;-88
2022/05/11 11:13:29;;;;;;;10.18;1.40;;;;;;;;;;6121488;23;20017;-88
2022/05/11 11:15:57;;;;;;;6.63;1.40;;;;;;;;;;6121426;23;20018;-88
2022/05/11 11:18:36;;;;;;;6.38;1.33;;;;;;;;;;6122110;23;20024;-90
2022/05/11 11:21:04;;;;;;;10.57;1.95;;;;;;;;;;6118955;23;20020;-90
2022/05/11 11:23:32;;;;;;;5.95;2.10;;;;;;;;;;6120286;23;20021;-90
2022/05/11 11:26:21;;;;;;;8.38;1.80;;;;;;;;;;6121162;23;20203;-91
2022/05/11 11:28:47;;;;;;;10.43;1.83;;;;;;;;;;6118323;23;20419;-87
2022/05/11 11:31:15;;;;;;;6.80;1.98;;;;;;;;;;6120230;23;20364;-89
2022/05/11 11:33:57;;;;;;;8.27;2.10;;;;;;;;;;6120777;23;20010;-87
2022/05/11 11:36:31;;;;;;;6.95;1.45;;;;;;;;;;6121579;23;20018;-90
2022/05/11 11:39:01;;;;;;;7.35;1.95;;;;;;;;;;6119018;23;20025;-86
2022/05/11 11:41:31;;;;;;;10.27;1.98;;;;;;;;;;6145324;23;20637;-87
2022/05/11 11:43:59;;;;;;;8.93;1.83;;;;;;;;;;6123068;23;20029;-88
2022/05/11 11:46:38;;;;;;;13.05;1.90;;;17.50;99.90;;;;;;6145371;23;20024;-88
2022/05/11 11:49:20;;;;;;;8.07;1.77;;;20.30;70.20;;;;;;6121005;23;20481;-89
2022/05/11 11:51:49;;;;;;;8.52;1.75;;;20.30;74.20;;;;;;6119433;23;20013;-88
2022/05/11 11:54:48;;;;;;;7.88;1.75;;;20.30;73.00;;;;;;6121902;23;20023;-87
2022/05/11 11:57:22;;;;;;;8.38;1.90;;;20.40;73.70;;;;;;6123559;23;20024;-87
2022/05/11 16:23:41;;;;;;;6.97;1.80;;;;;;;;;;6129585;22;1598251;-87
2022/05/11 16:26:07;;;;;;;9.07;1.80;;;;;;;;;;6132653;23;21117;-88
2022/05/11 16:28:33;;;;;;;11.70;1.98;;;;;;;;;;6136464;23;20017;-88
2022/05/11 16:30:59;;;;;;;9.32;2.00;;;;;;;;;;6136473;23;20043;-88
2022/05/11 16:33:28;;;;;;;14.73;2.40;;;;;;;;;;6137047;23;20044;-88
2022/05/11 16:35:54;;;;;;;9.98;2.13;;;;;;;;;;6161876;23;20017;-87
2022/05/11 16:38:20;;;;;;;11.07;2.30;;;;;;;;;;6138292;23;20055;-86
2022/05/11 16:40:46;;;;;;;12.10;2.05;;;;;;;;;;6163052;23;20334;-91
2022/05/11 16:43:13;;;;;;;9.00;1.80;;;;;;;;;;6137548;23;20013;-88
2022/05/11 16:45:39;;;;;;;7.45;1.73;;;;;;;;;;6136620;23;20017;-88
2022/05/11 16:48:06;;;;;;;8.70;1.90;;;;;;;;;;6159196;23;20017;-86
2022/05/11 16:50:32;;;;;;;13.25;2.20;;;;;;;;;;6136463;23;20032;-90
2022/05/11 16:53:01;;;;;;;8.32;1.85;;;;;;;;;;6134234;23;20020;-90
2022/05/11 16:55:28;;;;;;;9.57;2.00;;;;;;;;;;6157752;23;20017;-88
2022/05/11 16:57:54;;;;;;;6.80;2.10;;;;;;;;;;6157908;23;20017;-92
2022/05/11 17:00:21;;;;;;;10.48;2.22;;;;;;;;;;6157697;23;20009;-88
2022/05/11 17:02:47;;;;;;;12.40;2.33;;;;;;;;;;6158745;23;20067;-89
2022/05/11 17:05:13;;;;;;;10.07;2.05;;;;;;;;;;6155786;23;20260;-88
2022/05/11 17:07:40;;;;;;;9.75;2.15;;;;;;;;;;6153569;23;20320;-90
2022/05/11 17:10:07;;;;;;;13.73;2.67;;;19.80;65.70;;;;;;6129763;23;20033;-88
2022/05/11 17:12:34;;;;;;;15.43;2.50;;;;;;;;;;6123126;23;20021;-89
2022/05/11 17:15:00;;;;;;;10.75;1.88;;;;;;;;;;6148377;23;20049;-91
2022/05/11 17:17:26;;;;;;;12.45;2.22;;;;;;;;;;6149206;23;20467;-86
2022/05/11 17:19:52;;;;;;;9.30;2.17;;;;;;;;;;6151669;23;20629;-88
2022/05/11 17:22:19;;;;;;;12.43;2.47;;;;;;;;;;6175965;23;20013;-88
2022/05/11 17:24:45;;;;;;;12.30;2.72;;;;;;;;;;6126539;23;20733;-87
2022/05/11 17:27:12;;;;;;;14.65;2.55;;;;;;;;;;6127842;23;20024;-90
2022/05/11 17:29:38;;;;;;;19.10;2.95;;;;;;;;;;6101431;23;20128;-87
2022/05/11 17:32:04;;;;;;;13.05;2.80;;;;;;;;;;6100968;23;20462;-88
2022/05/11 17:34:33;;;;;;;15.68;2.72;;;;;;;;;;6127013;23;20023;-89
2022/05/11 17:36:59;;;;;;;8.15;2.28;;;;;;;;;;6102704;23;20339;-89
2022/05/11 17:39:26;;;;;;;13.70;3.38;;;;;;;;;;6126363;23;20059;-87
2022/05/11 17:41:52;;;;;;;17.33;3.17;;;18.00;91.90;;;;;;6127693;23;20009;-91
2022/05/11 17:44:17;;;;;;;13.38;2.60;;;16.90;99.90;;;;;;6123685;23;20179;-89
2022/05/11 17:46:43;;;;;;;22.35;3.08;;;16.80;99.90;;;;;;6079320;23;20024;-87
2022/05/11 17:49:09;;;;;;;17.55;3.60;;;16.70;99.90;;;;;;6077934;23;20393;-89
2022/05/11 17:51:38;;;;;;;15.68;3.42;;;;;;;;;;6102662;23;20490;-90
2022/05/11 17:54:04;;;;;;;20.02;3.20;;;;;;;;;;6126186;23;20899;-89
2022/05/11 17:56:30;;;;;;;19.38;3.80;;;;;;;;;;6126665;23;20013;-88
2022/05/11 17:58:57;;;;;;;13.93;3.58;;;;;;;;;;6102988;23;20099;-87
2022/05/11 18:01:23;;;;;;;20.10;3.60;;;;;;;;;;6102979;23;20017;-90
2022/05/11 18:03:55;;;;;;;13.77;3.60;;;;;;;;;;6126272;23;20059;-89
2022/05/11 18:06:22;;;;;;;16.05;4.00;;;;;;;;;;6125518;23;20020;-88
2022/05/11 18:08:48;;;;;;;20.10;4.65;;;;;;;;;;6105028;23;20663;-89
2022/05/11 18:11:15;;;;;;;16.85;3.60;;;;;;;;;;6129055;23;20023;-90
2022/05/11 18:13:42;;;;;;;22.13;3.38;;;;;;;;;;6103414;23;20024;-91
2022/05/11 18:16:08;;;;;;;17.33;3.60;;;;;;;;;;6102332;23;20048;-89
2022/05/11 18:18:36;;;;;;;21.50;4.40;;;;;;;;;;6126233;23;20013;-90
2022/05/11 18:21:03;;;;;;;17.33;3.92;;;;;;;;;;6102311;23;20017;-88
2022/05/11 18:23:30;;;;;;;23.70;4.30;;;;;;;;;;6138026;23;20016;-89
2022/05/11 18:25:56;;;;;;;19.75;3.78;;;;;;;;;;6151497;23;20343;-87
2022/05/11 18:28:24;;;;;;;14.10;3.17;;;;;;;;;;6150429;23;20013;-90
2022/05/11 18:30:51;;;;;;;16.40;3.47;;;16.70;99.90;;;;;;6148789;23;20023;-91
2022/05/11 18:33:17;;;;;;;18.58;3.35;;;;;;;;;;6152456;23;20462;-91
2022/05/11 18:35:44;;;;;;;13.60;3.00;;;;;;;;;;6151732;23;20087;-93
2022/05/11 18:38:10;;;;;;;17.40;3.35;;;;;;;;;;6126512;23;20013;-89
2022/05/11 18:40:37;;;;;;;10.80;2.85;;;;;;;;;;6150308;23;20013;-87
2022/05/11 18:43:06;;;;;;;10.13;2.72;;;16.00;99.90;;;;;;6176885;23;20013;-92
2022/05/11 18:45:32;;;;;;;13.93;2.60;;;15.70;99.90;;;;;;6150698;23;20017;-88
2022/05/11 18:47:59;;;;;;;11.32;2.40;;;15.70;99.90;;;;;;6128063;23;20021;-88
2022/05/11 18:50:25;;;;;;;14.43;2.70;;;15.60;99.90;;;;;;6106670;23;20017;-91
2022/05/11 18:52:52;;;;;;;17.70;2.60;;;15.50;99.90;;;;;;6155258;23;20036;-91
2022/05/11 18:55:19;;;;;;;15.07;2.92;;;15.40;99.90;;;;;;6154614;23;20525;-88
2022/05/11 18:57:45;;;;;;;9.75;2.38;;;15.40;99.90;;;;;;6153372;23;20013;-89
2022/05/11 19:00:16;;;;;;;11.23;2.97;;;15.30;99.90;;;;;;6153477;23;20020;-87
2022/05/11 19:02:43;;;;;;;12.02;2.63;;;15.20;99.90;;;;;;6152304;23;20024;-90
2022/05/11 19:05:09;;;;;;;13.05;2.60;;;15.10;99.90;;;;;;6126446;23;20009;-89
2022/05/11 19:07:39;;;;;;;12.88;2.55;;;15.00;99.90;;;;;;6150662;23;20017;-89
2022/05/11 19:10:09;;;;;;;13.77;2.85;;;15.00;99.90;;;;;;6126248;23;20096;-89
2022/05/11 19:12:39;;;;;;;13.07;2.70;;;14.90;99.90;;;;;;6150973;23;20426;-90
2022/05/11 19:15:10;;;;;;;14.93;2.90;;;14.90;99.90;;;;;;6150840;23;20956;-90
2022/05/11 19:17:35;;;;;;;15.93;2.78;;;14.80;99.90;;;;;;6152276;23;20045;-89
2022/05/11 19:20:03;;;;;;;16.95;3.10;;;14.80;99.90;;;;;;6148462;23;20013;-88
2022/05/11 19:22:32;;;;;;;9.85;3.15;;;14.80;99.90;;;;;;6180499;23;20036;-88
2022/05/11 19:24:58;;;;;;;12.63;2.80;;;;;;;;;;6103646;23;20044;-89
2022/05/11 19:27:24;;;;;;;12.45;3.35;;;;;;;;;;6101854;23;20013;-91
2022/05/11 19:29:50;;;;;;;14.13;3.35;;;;;;;;;;6101848;23;20644;-89
2022/05/11 19:32:16;;;;;;;12.13;3.50;;;;;;;;;;6126803;23;20052;-88
2022/05/11 19:34:43;;;;;;;12.45;3.38;;;;;;;;;;6101878;23;20066;-87
2022/05/11 19:37:09;;;;;;;15.63;3.40;;;;;;;;;;6126532;23;20013;-89
2022/05/11 19:39:35;;;;;;;15.30;3.72;;;;;;;;;;6129580;23;20042;-89
2022/05/11 19:42:01;;;;;;;9.05;3.17;;;;;;;;;;6105152;23;20044;-88
2022/05/11 19:44:27;;;;;;;15.15;3.22;;;14.70;99.90;;;;;;6127213;23;20061;-89
2022/05/11 19:46:55;;;;;;;17.77;3.78;;;14.40;99.90;;;;;;6126848;23;20035;-91
2022/05/11 19:49:22;;;;;;;12.75;3.38;;;14.40;99.90;;;;;;6127687;23;20323;-91
2022/05/11 19:51:48;;;;;;;16.52;3.85;;;14.40;99.90;;;;;;6102914;23;20031;-87
2022/05/11 19:54:15;;;;;;;10.57;3.28;;;14.30;99.90;;;;;;6102120;23;20021;-90
2022/05/11 19:56:41;;;;;;;10.30;3.78;;;14.30;99.90;;;;;;6103926;23;20013;-89
2022/05/11 19:59:10;;;;;;;22.75;3.60;;;14.30;99.90;;;;;;6128237;23;20043;-90
2022/05/11 20:01:37;;;;;;;17.52;3.85;;;14.30;99.90;;;;;;6104421;23;20044;-88
2022/05/11 20:04:04;;;;;;;14.48;4.25;;;14.30;99.90;;;;;;6127838;23;20041;-89
2022/05/11 20:06:30;;;;;;;13.82;3.80;;;14.30;99.90;;;;;;6129129;23;20109;-91
2022/05/11 20:08:57;;;;;;;16.85;3.88;;;14.20;99.90;;;;;;6102906;23;20028;-90
2022/05/11 20:11:28;;;;;;;18.50;4.65;;;14.10;99.90;;;;;;6104952;23;20017;-89
2022/05/11 20:13:55;;;;;;;18.10;4.57;;;14.10;99.90;;;;;;6130256;23;20447;-89
2022/05/11 20:16:21;;;;;;;15.90;4.50;;;14.00;99.90;;;;;;6129069;23;20757;-90
2022/05/11 20:18:49;;;;;;;17.27;4.65;;;14.00;99.90;;;;;;6130178;23;20048;-89
2022/05/11 20:21:16;;;;;;;20.23;5.32;;;13.90;99.90;;;;;;6125715;23;20040;-89
2022/05/11 20:23:47;;;;;;;15.48;5.05;;;13.80;99.90;;;;;;6142309;23;20024;-90
2022/05/11 20:26:17;;;;;;;18.15;4.90;;;13.70;99.90;;;;;;6151118;23;20023;-90
2022/05/11 20:28:48;;;;;;;15.63;5.55;;;13.70;99.90;;;;;;6152124;23;20541;-89
2022/05/11 20:36:46;;;;;;;18.02;5.05;;;13.50;99.90;;;;;;6177671;23;20021;-90
2022/05/11 20:39:12;;;;;;;14.95;5.35;;;13.40;99.90;;;;;;6153078;23;20067;-88
2022/05/11 20:41:38;;;;;;;10.25;5.05;;;13.40;99.90;;;;;;6102822;23;20040;-89
2022/05/11 20:44:04;;;;;;;14.73;5.78;;;13.40;99.90;;;;;;6130247;23;20021;-89
2022/05/11 20:46:30;;;;;;;13.45;5.45;;;13.40;99.90;;;;;;6130934;23;20052;-87
2022/05/11 20:48:57;;;;;;;17.55;6.03;;;13.30;99.90;;;;;;6104409;23;20017;-91
2022/05/11 20:51:24;;;;;;;14.00;5.68;;;13.40;99.90;;;;;;6155155;23;20046;-91
2022/05/11 20:53:49;;;;;;;17.08;5.25;;;13.40;99.90;;;;;;6153353;23;20052;-90
2022/05/11 20:56:15;;;;;;;9.60;4.85;;;13.40;99.90;;;;;;6103956;23;20320;-88
2022/05/11 20:58:41;;;;;;;10.48;5.38;;;13.40;99.90;;;;;;6105585;23;20093;-90
2022/05/11 21:01:07;;;;;;;12.25;4.95;;;13.40;99.90;;;;;;6105420;23;20451;-90
2022/05/11 21:03:33;;;;;;;10.35;4.10;;;13.50;99.90;;;;;;6128219;23;20063;-90
2022/05/11 21:05:59;;;;;;;13.60;4.82;;;13.50;99.90;;;;;;6129302;23;20163;-89
2022/05/11 21:08:25;;;;;;;13.48;5.03;;;13.60;99.90;;;;;;6130649;23;20024;-89
2022/05/11 21:10:51;;;;;;;12.20;4.88;;;13.60;99.90;;;;;;6130847;23;20064;-89
2022/05/11 21:13:18;;;;;;;15.77;4.90;;;13.60;99.90;;;;;;6105991;23;20013;-86
2022/05/11 21:15:44;;;;;;;11.93;4.30;;;13.60;99.90;;;;;;6131152;23;20381;-88
2022/05/11 21:18:10;;;;;;;17.50;4.40;;;13.60;99.90;;;;;;6129794;23;20044;-89
2022/05/11 21:20:36;;;;;;;13.77;4.90;;;13.60;99.90;;;;;;6130330;23;20096;-88
2022/05/11 21:23:02;;;;;;;11.32;5.22;;;13.60;99.90;;;;;;6130358;23;20643;-92
2022/05/11 21:25:28;;;;;;;9.43;4.70;;;13.70;99.90;;;;;;6154784;23;20044;-89
2022/05/11 21:27:59;;;;;;;9.50;4.75;;;13.70;99.90;;;;;;6105695;23;20020;-90
2022/05/11 21:30:25;;;;;;;11.75;5.22;;;13.70;99.90;;;;;;6130782;23;20120;-90
2022/05/11 21:32:51;;;;;;;8.00;4.30;;;13.70;99.90;;;;;;6155090;23;20009;-90
2022/05/11 21:35:19;;;;;;;7.35;4.55;;;13.70;99.90;;;;;;6104418;23;20036;-88
2022/05/11 21:37:49;;;;;;;11.60;5.10;;;13.70;99.90;;;;;;6154894;23;20013;-92
2022/05/11 21:40:19;;;;;;;14.55;5.47;;;13.70;99.90;;;;;;6154871;23;20029;-89
2022/05/11 21:42:45;;;;;;;10.40;5.20;;;13.70;99.90;;;;;;6177912;23;20056;-89
2022/05/11 21:45:12;;;;;;;9.45;5.03;;;13.70;99.90;;;;;;6104692;23;20024;-89
2022/05/11 21:47:37;;;;;;;7.40;5.45;;;13.80;99.90;;;;;;6154808;23;20072;-87
2022/05/11 21:50:11;;;;;;;13.25;6.85;;;13.80;99.90;;;;;;6130189;23;20020;-90
2022/05/11 21:52:40;;;;;;;17.33;7.15;;;13.80;99.90;;;;;;6154755;23;20017;-90
2022/05/11 21:55:10;;;;;;;16.40;7.38;;;13.80;99.90;;;;;;6130057;23;20013;-89
2022/05/11 21:57:47;;;;;;;14.00;6.60;;;13.80;99.90;;;;;;6153583;23;20024;-90
2022/05/11 22:00:21;;;;;;;15.02;7.57;;;13.80;99.90;;;;;;6153397;23;20016;-92
2022/05/11 22:02:48;;;;;;;16.92;7.03;;;13.80;99.90;;;;;;6154399;23;20493;-90
2022/05/11 22:05:14;;;;;;;12.13;6.88;;;13.80;99.90;;;;;;6130431;23;20013;-91
2022/05/11 22:07:40;;;;;;;14.88;7.60;;;13.80;99.90;;;;;;6130253;23;20442;-89
2022/05/11 22:10:09;;;;;;;20.10;8.27;;;13.90;99.90;;;;;;6129345;23;20048;-90
2022/05/11 22:12:38;;;;;;;16.02;8.20;;;13.80;99.90;;;;;;6107843;23;20091;-89
2022/05/11 22:15:05;;;;;;;16.95;7.80;;;13.80;99.90;;;;;;6130062;23;20047;-89
2022/05/11 22:17:31;;;;;;;18.48;8.23;;;13.80;99.90;;;;;;6155439;23;20100;-91
2022/05/11 22:20:08;;;;;;;21.02;8.30;;;13.80;99.90;;;;;;6155145;23;20016;-90
2022/05/11 22:22:34;;;;;;;20.02;7.90;;;13.70;99.90;;;;;;6155756;23;20088;-90
2022/05/11 22:25:15;;;;;;;14.35;6.57;;;13.70;99.90;;;;;;6129504;23;20009;-90
2022/05/11 22:27:47;;;;;;;16.00;6.53;;;13.70;99.90;;;;;;6154692;23;20020;-93
2022/05/11 22:30:51;;;;;;;19.35;6.63;;;13.70;99.90;;;;;;6154919;23;20127;-90
2022/05/11 22:33:20;;;;;;;15.50;5.07;;;13.70;99.90;;;;;;6070680;23;20017;-89
2022/05/11 22:35:52;;;;;;;21.88;5.57;;;13.70;99.90;;;;;;6138539;23;20013;-91